createdAt,value
2023-02-06T00:01:55.298Z,102556.88
2023-02-06T00:04:57.038Z,102569.06
2023-02-06T00:07:58.900Z,102558.44
2023-02-06T00:11:04.809Z,102566.75
2023-02-06T00:14:07.117Z,102574.16
2023-02-06T00:17:08.849Z,102578.47
2023-02-06T00:20:11.858Z,102577.97
2023-02-06T00:23:13.521Z,102578.03
2023-02-06T00:26:17.366Z,102582.28
2023-02-06T00:29:19.051Z,102572.03
2023-02-06T00:32:21.777Z,102585.00
2023-02-06T00:35:23.405Z,102586.38
2023-02-06T00:38:25.067Z,102580.69
2023-02-06T00:41:28.170Z,102587.06
2023-02-06T00:44:30.104Z,102586.53
2023-02-06T00:47:31.725Z,102593.63
2023-02-06T00:50:33.726Z,102601.38
2023-02-06T00:53:35.457Z,102591.44
2023-02-06T00:56:38.429Z,102578.00
2023-02-06T00:59:40.178Z,102587.69
2023-02-06T01:02:41.855Z,102588.41
2023-02-06T01:05:44.072Z,102595.16
2023-02-06T01:08:46.390Z,102586.72
2023-02-06T01:11:49.407Z,102592.41
2023-02-06T01:14:51.115Z,102591.75
2023-02-06T01:17:52.778Z,102595.19
2023-02-06T01:20:54.515Z,102605.44
2023-02-06T01:23:56.266Z,102600.63
2023-02-06T01:26:59.286Z,102602.78
2023-02-06T01:30:00.970Z,102610.97
2023-02-06T01:33:03.010Z,102604.78
2023-02-06T01:36:05.030Z,102606.63
2023-02-06T01:39:06.910Z,102606.09
2023-02-06T01:42:12.815Z,102609.50
2023-02-06T01:45:45.341Z,102601.66
2023-02-06T01:48:51.487Z,102597.81
2023-02-06T01:51:56.309Z,102592.66
2023-02-06T01:55:02.456Z,102582.31
2023-02-06T01:58:07.651Z,102587.69
2023-02-06T02:01:11.495Z,102583.91
2023-02-06T02:04:17.861Z,102590.16
2023-02-06T02:07:22.705Z,102585.06
2023-02-06T02:10:24.369Z,102584.53
2023-02-06T02:13:27.431Z,102588.59
2023-02-06T02:16:40.719Z,102585.44
2023-02-06T02:20:21.803Z,102585.59
2023-02-06T02:23:33.576Z,102594.06
2023-02-06T02:27:07.344Z,102591.72
2023-02-06T02:30:52.404Z,102590.84
2023-02-06T02:34:29.010Z,102587.41
2023-02-06T02:37:43.624Z,102587.22
2023-02-06T02:40:50.660Z,102579.03
2023-02-06T02:43:58.050Z,102584.44
2023-02-06T02:47:03.597Z,102574.84
2023-02-06T02:50:07.519Z,102579.53
2023-02-06T02:53:10.138Z,102566.44
2023-02-06T02:56:17.869Z,102569.16
2023-02-06T02:59:25.214Z,102575.09
2023-02-06T03:02:31.600Z,102574.53
2023-02-06T03:05:40.449Z,102575.94
2023-02-06T03:08:49.600Z,102587.50
2023-02-06T03:11:59.570Z,102582.69
2023-02-06T03:15:08.368Z,102594.88
2023-02-06T03:18:13.094Z,102588.47
2023-02-06T03:21:19.555Z,102587.19
2023-02-06T03:24:26.420Z,102585.03
2023-02-06T03:27:30.467Z,102581.56
2023-02-06T03:30:33.727Z,102586.44
2023-02-06T03:33:40.100Z,102580.03
2023-02-06T03:36:43.386Z,102586.19
2023-02-06T03:39:45.166Z,102586.53
2023-02-06T03:42:51.724Z,102586.28
2023-02-06T03:46:00.502Z,102580.31
2023-02-06T03:49:07.278Z,102589.59
2023-02-06T03:52:15.910Z,102585.56
2023-02-06T03:55:21.194Z,102589.91
2023-02-06T03:58:24.586Z,102590.31
2023-02-06T04:01:27.455Z,102589.78
2023-02-06T04:04:32.301Z,102587.03
2023-02-06T04:07:36.072Z,102589.59
2023-02-06T04:10:37.704Z,102587.41
2023-02-06T04:13:39.444Z,102609.13
2023-02-06T04:16:41.276Z,102613.09
2023-02-06T04:19:43.184Z,102607.59
2023-02-06T04:22:46.288Z,102599.56
2023-02-06T04:25:48.218Z,102608.66
2023-02-06T04:28:49.775Z,102608.47
2023-02-06T04:31:51.531Z,102606.41
2023-02-06T04:34:53.254Z,102606.91
2023-02-06T04:37:56.398Z,102604.91
2023-02-06T04:41:02.376Z,102599.75
2023-02-06T04:44:04.363Z,102589.38
2023-02-06T04:47:06.110Z,102583.19
2023-02-06T04:50:08.514Z,102586.53
2023-02-06T04:53:11.532Z,102590.41
2023-02-06T04:56:13.251Z,102587.16
2023-02-06T04:59:15.333Z,102591.63
2023-02-06T05:02:17.215Z,102595.50
2023-02-06T05:05:19.207Z,102595.50
2023-02-06T05:08:22.522Z,102598.81
2023-02-06T05:11:24.584Z,102600.91
2023-02-06T05:14:26.630Z,102613.97
2023-02-06T05:17:29.096Z,102612.75
2023-02-06T05:20:31.243Z,102614.66
2023-02-06T05:23:34.461Z,102617.75
2023-02-06T05:26:36.232Z,102614.31
2023-02-06T05:29:37.855Z,102614.63
2023-02-06T05:32:40.122Z,102611.28
2023-02-06T05:35:41.946Z,102608.44
2023-02-06T05:38:45.082Z,102598.84
2023-02-06T05:41:46.776Z,102592.97
2023-02-06T05:44:48.594Z,102600.56
2023-02-06T05:47:50.448Z,102599.59
2023-02-06T05:50:52.181Z,102598.66
2023-02-06T05:53:55.226Z,102604.09
2023-02-06T05:57:02.126Z,102593.22
2023-02-06T06:00:05.833Z,102593.28
2023-02-06T06:03:13.218Z,102587.06
2023-02-06T06:06:15.010Z,102584.97
2023-02-06T06:09:18.108Z,102585.66
2023-02-06T06:12:19.784Z,102583.34
2023-02-06T06:15:21.494Z,102582.63
2023-02-06T06:18:23.331Z,102571.38
2023-02-06T06:21:25.138Z,102573.03
2023-02-06T06:24:28.138Z,102557.50
2023-02-06T06:27:29.841Z,102565.28
2023-02-06T06:30:31.754Z,102561.41
2023-02-06T06:33:34.328Z,102567.88
2023-02-06T06:36:36.159Z,102563.78
2023-02-06T06:39:39.131Z,102567.78
2023-02-06T06:42:40.794Z,102568.16
2023-02-06T06:45:42.456Z,102582.81
2023-02-06T06:48:44.065Z,102576.75
2023-02-06T06:51:45.751Z,102595.88
2023-02-06T06:54:49.718Z,102601.03
2023-02-06T06:57:52.051Z,102595.22
2023-02-06T07:00:53.857Z,102599.88
2023-02-06T07:03:55.756Z,102606.09
2023-02-06T07:06:57.445Z,102620.06
2023-02-06T07:10:00.858Z,102622.34
2023-02-06T07:13:02.539Z,102626.47
2023-02-06T07:16:04.748Z,102613.13
2023-02-06T07:19:07.757Z,102615.78
2023-02-06T07:22:09.478Z,102618.69
2023-02-06T07:25:12.665Z,102601.88
2023-02-06T07:28:14.406Z,102603.66
2023-02-06T07:31:16.262Z,102599.94
2023-02-06T07:34:17.911Z,102605.84
2023-02-06T07:37:19.542Z,102607.09
2023-02-06T07:40:23.119Z,102603.13
2023-02-06T07:43:24.974Z,102610.91
2023-02-06T07:46:26.897Z,102611.78
2023-02-06T07:49:28.681Z,102607.22
2023-02-06T07:52:30.396Z,102605.56
2023-02-06T07:55:35.913Z,102602.53
2023-02-06T07:58:37.857Z,102600.03
2023-02-06T08:01:39.653Z,102591.13
2023-02-06T08:04:41.571Z,102596.41
2023-02-06T08:07:43.361Z,102593.72
2023-02-06T08:10:48.032Z,102584.38
2023-02-06T08:13:49.874Z,102585.94
2023-02-06T08:16:52.065Z,102594.50
2023-02-06T08:19:53.953Z,102591.75
2023-02-06T08:22:56.216Z,102596.53
2023-02-06T08:26:05.153Z,102592.59
2023-02-06T08:29:07.993Z,102588.91
2023-02-06T08:32:10.101Z,102583.06
2023-02-06T08:35:12.154Z,102594.88
2023-02-06T08:38:13.862Z,102591.38
2023-02-06T08:41:20.236Z,102585.06
2023-02-06T08:44:22.208Z,102587.09
2023-02-06T08:47:23.971Z,102583.00
2023-02-06T08:50:25.680Z,102574.75
2023-02-06T08:53:27.503Z,102577.25
2023-02-06T08:56:32.081Z,102572.16
2023-02-06T08:59:34.739Z,102576.59
2023-02-06T09:02:37.119Z,102577.03
2023-02-06T09:05:39.096Z,102567.84
2023-02-06T09:08:41.844Z,102572.00
2023-02-06T09:11:44.903Z,102575.88
2023-02-06T09:14:46.771Z,102572.38
2023-02-06T09:17:48.401Z,102583.31
2023-02-06T09:20:50.692Z,102581.16
2023-02-06T09:23:54.606Z,102582.31
2023-02-06T09:27:00.103Z,102586.06
2023-02-06T09:30:02.153Z,102593.97
2023-02-06T09:33:04.036Z,102599.56
2023-02-06T09:36:08.490Z,102596.31
2023-02-06T09:39:10.408Z,102598.78
2023-02-06T09:42:19.104Z,102601.28
2023-02-06T09:45:23.145Z,102590.44
2023-02-06T09:48:27.476Z,102580.94
2023-02-06T09:51:40.103Z,102583.31
2023-02-06T09:54:49.546Z,102569.78
2023-02-06T09:58:00.572Z,102558.84
2023-02-06T10:01:12.872Z,102544.53
2023-02-06T10:04:34.739Z,102549.75
2023-02-06T10:07:57.223Z,102551.66
2023-02-06T10:11:03.226Z,102549.75
2023-02-06T10:14:13.595Z,102544.31
2023-02-06T10:17:20.425Z,102533.94
2023-02-06T10:20:31.415Z,102535.84
2023-02-06T10:23:41.117Z,102542.50
2023-02-06T10:26:42.903Z,102525.69
2023-02-06T10:29:48.118Z,102530.41
2023-02-06T10:32:54.306Z,102529.53
2023-02-06T10:36:06.779Z,102526.19
2023-02-06T10:39:23.371Z,102515.81
2023-02-06T10:42:34.411Z,102504.69
2023-02-06T10:45:43.969Z,102504.91
2023-02-06T10:48:54.511Z,102505.63
2023-02-06T10:51:58.840Z,102507.31
2023-02-06T10:55:05.115Z,102497.84
2023-02-06T10:58:15.912Z,102503.50
2023-02-06T11:01:26.376Z,102487.59
2023-02-06T11:04:35.048Z,102482.41
2023-02-06T11:07:39.550Z,102479.03
2023-02-06T11:10:41.815Z,102478.41
2023-02-06T11:13:45.793Z,102481.25
2023-02-06T11:16:49.141Z,102474.41
2023-02-06T11:19:53.146Z,102457.41
2023-02-06T11:22:55.074Z,102464.94
2023-02-06T11:26:06.135Z,102459.72
2023-02-06T11:29:14.066Z,102459.75
2023-02-06T11:32:34.199Z,102449.34
2023-02-06T11:35:39.206Z,102444.59
2023-02-06T11:38:54.503Z,102447.22
2023-02-06T11:41:59.446Z,102442.03
2023-02-06T11:45:23.114Z,102444.84
2023-02-06T11:48:36.184Z,102442.41
2023-02-06T11:51:51.606Z,102451.22
2023-02-06T11:54:55.220Z,102437.03
2023-02-06T11:58:21.971Z,102442.66
2023-02-06T12:01:23.621Z,102439.28
2023-02-06T12:04:33.969Z,102425.91
2023-02-06T12:07:42.625Z,102417.63
2023-02-06T12:10:54.336Z,102415.16
2023-02-06T12:14:02.444Z,102411.97
2023-02-06T12:17:09.682Z,102413.53
2023-02-06T12:20:18.996Z,102413.94
2023-02-06T12:23:25.879Z,102406.97
2023-02-06T12:26:30.434Z,102402.50
2023-02-06T12:29:36.314Z,102399.78
2023-02-06T12:32:42.413Z,102390.31
2023-02-06T12:35:49.636Z,102409.66
2023-02-06T12:38:57.159Z,102399.78
2023-02-06T12:42:21.901Z,102399.25
2023-02-06T12:45:39.694Z,102400.78
2023-02-06T12:48:48.212Z,102399.75
2023-02-06T12:51:57.960Z,102385.34
2023-02-06T12:55:11.192Z,102379.19
2023-02-06T12:58:24.972Z,102382.28
2023-02-06T13:01:49.989Z,102372.66
2023-02-06T13:04:52.278Z,102376.13
2023-02-06T13:07:57.998Z,102372.44
2023-02-06T13:11:03.185Z,102370.59
2023-02-06T13:14:08.276Z,102370.53
2023-02-06T13:17:14.044Z,102363.72
2023-02-06T13:20:18.033Z,102362.91
2023-02-06T13:23:24.366Z,102356.63
2023-02-06T13:26:59.950Z,102358.00
2023-02-06T13:30:37.030Z,102366.75
2023-02-06T13:33:42.027Z,102377.03
2023-02-06T13:36:50.347Z,102368.91
2023-02-06T13:40:17.591Z,102368.53
2023-02-06T13:43:23.288Z,102368.00
2023-02-06T13:46:36.798Z,102361.41
2023-02-06T13:50:12.165Z,102348.81
2023-02-06T13:53:43.178Z,102348.84
2023-02-06T13:57:00.535Z,102334.44
2023-02-06T14:00:10.631Z,102335.19
2023-02-06T14:03:16.078Z,102347.28
2023-02-06T14:06:40.075Z,102356.47
2023-02-06T14:10:18.499Z,102350.09
2023-02-06T14:13:37.190Z,102359.88
2023-02-06T14:16:49.442Z,102355.53
2023-02-06T14:19:57.626Z,102356.94
2023-02-06T14:23:06.917Z,102353.72
2023-02-06T14:26:22.535Z,102351.28
2023-02-06T14:29:37.652Z,102356.66
2023-02-06T14:32:47.806Z,102347.72
2023-02-06T14:36:02.521Z,102334.84
2023-02-06T14:39:36.869Z,102341.09
2023-02-06T14:42:40.943Z,102335.63
2023-02-06T14:46:05.576Z,102335.03
2023-02-06T14:49:15.369Z,102329.75
2023-02-06T14:52:21.748Z,102327.13
2023-02-06T14:55:32.575Z,102331.41
2023-02-06T14:58:34.822Z,102337.53
2023-02-06T15:01:38.475Z,102339.41
2023-02-06T15:04:45.790Z,102335.25
2023-02-06T15:07:57.600Z,102330.50
2023-02-06T15:11:01.229Z,102324.13
2023-02-06T15:14:06.442Z,102329.53
2023-02-06T15:17:19.461Z,102310.34
2023-02-06T15:20:25.375Z,102321.09
2023-02-06T15:23:41.960Z,102327.28
2023-02-06T15:26:50.370Z,102312.19
2023-02-06T15:29:52.921Z,102309.44
2023-02-06T15:32:56.214Z,102317.53
2023-02-06T15:36:00.110Z,102316.81
2023-02-06T15:39:04.569Z,102308.78
2023-02-06T15:42:07.194Z,102307.16
2023-02-06T15:45:17.956Z,102305.31
2023-02-06T15:48:25.182Z,102320.22
2023-02-06T15:51:29.228Z,102308.63
2023-02-06T15:54:31.571Z,102316.91
2023-02-06T15:57:38.507Z,102320.94
2023-02-06T16:00:41.675Z,102321.84
2023-02-06T16:03:48.507Z,102324.94
2023-02-06T16:07:01.361Z,102323.78
2023-02-06T16:10:16.742Z,102317.16
2023-02-06T16:13:22.923Z,102326.88
2023-02-06T16:16:26.162Z,102325.44
2023-02-06T16:19:47.719Z,102330.66
2023-02-06T16:22:49.540Z,102322.88
2023-02-06T16:26:01.980Z,102338.75
2023-02-06T16:29:14.716Z,102335.69
2023-02-06T16:32:18.700Z,102337.63
2023-02-06T16:35:22.447Z,102340.25
2023-02-06T16:38:24.247Z,102344.28
2023-02-06T16:41:29.544Z,102341.00
2023-02-06T16:44:43.982Z,102345.03
2023-02-06T16:47:46.635Z,102349.53
2023-02-06T17:11:10.959Z,102370.56
2023-02-06T17:14:13.426Z,102377.91
2023-02-06T17:17:16.852Z,102382.88
2023-02-06T17:20:31.579Z,102380.28
2023-02-06T17:23:33.353Z,102382.41
2023-02-06T17:26:36.617Z,102379.81
2023-02-06T17:29:38.416Z,102392.09
2023-02-06T17:32:40.304Z,102388.75
2023-02-06T17:35:42.189Z,102398.69
2023-02-06T17:38:44.622Z,102396.78
2023-02-06T17:41:48.001Z,102386.06
2023-02-06T17:44:50.209Z,102365.72
2023-02-06T17:47:52.594Z,102360.53
2023-02-06T17:50:54.350Z,102360.84
2023-02-06T17:53:57.108Z,102369.00
2023-02-06T17:57:00.141Z,102359.63
2023-02-06T18:00:02.552Z,102356.28
2023-02-06T18:03:06.815Z,102360.28
2023-02-06T18:06:09.365Z,102359.19
2023-02-06T18:09:11.249Z,102357.63
2023-02-06T18:12:15.347Z,102356.19
2023-02-06T18:15:17.534Z,102355.69
2023-02-06T18:18:19.596Z,102360.75
2023-02-06T18:21:21.817Z,102348.13
2023-02-06T18:24:23.684Z,102345.50
2023-02-06T18:27:26.836Z,102345.28
2023-02-06T18:30:28.768Z,102350.34
2023-02-06T18:33:31.863Z,102350.53
2023-02-06T18:36:34.306Z,102339.19
2023-02-06T18:39:37.575Z,102342.50
2023-02-06T18:42:55.598Z,102347.13
2023-02-06T18:45:57.362Z,102345.97
2023-02-06T18:48:59.200Z,102351.00
2023-02-06T18:52:01.651Z,102362.03
2023-02-06T18:55:03.621Z,102356.84
2023-02-06T18:58:06.752Z,102362.81
2023-02-06T19:01:13.780Z,102351.75
2023-02-06T19:04:15.737Z,102357.34
2023-02-06T19:07:18.346Z,102361.16
2023-02-06T19:10:21.395Z,102360.34
2023-02-06T19:13:24.510Z,102364.84
2023-02-06T19:16:28.530Z,102362.53
2023-02-06T19:19:30.468Z,102360.16
2023-02-06T19:22:33.633Z,102366.38
2023-02-06T19:25:35.318Z,102376.78
2023-02-06T19:28:39.846Z,102386.00
2023-02-06T19:31:42.806Z,102393.00
2023-02-06T19:34:45.261Z,102393.59
2023-02-06T19:37:47.078Z,102401.41
2023-02-06T19:40:48.708Z,102399.84
2023-02-06T19:43:53.578Z,102404.72
2023-02-06T19:46:55.732Z,102411.59
2023-02-06T19:49:57.381Z,102411.34
2023-02-06T19:52:59.057Z,102425.19
2023-02-06T19:56:00.995Z,102421.16
2023-02-06T19:59:07.087Z,102430.47
2023-02-06T20:02:13.259Z,102414.41
2023-02-06T20:05:15.378Z,102426.78
2023-02-06T20:08:17.405Z,102429.97
2023-02-06T20:11:22.571Z,102430.31
2023-02-06T20:14:25.987Z,102434.59
2023-02-06T20:17:28.006Z,102443.16
2023-02-06T20:20:33.364Z,102426.47
2023-02-06T20:23:38.334Z,102430.72
2023-02-06T20:26:41.921Z,102441.13
2023-02-06T20:29:45.921Z,102440.81
2023-02-06T20:32:47.595Z,102432.75
2023-02-06T20:35:49.395Z,102428.78
2023-02-06T20:38:52.458Z,102431.75
2023-02-06T20:41:54.583Z,102422.44
2023-02-06T20:44:57.620Z,102419.25
2023-02-06T20:47:59.313Z,102432.34
2023-02-06T20:51:02.365Z,102426.25
2023-02-06T20:54:05.103Z,102423.50
2023-02-06T20:57:06.755Z,102426.19
2023-02-06T21:00:11.819Z,102423.50
2023-02-06T21:03:13.639Z,102428.66
2023-02-06T21:06:15.779Z,102424.44
2023-02-06T21:09:18.070Z,102424.59
2023-02-06T21:12:19.902Z,102425.41
2023-02-06T21:15:23.430Z,102413.75
2023-02-06T21:18:31.097Z,102410.94
2023-02-06T21:21:33.052Z,102407.03
2023-02-06T21:24:34.690Z,102414.13
2023-02-06T21:27:37.554Z,102413.34
2023-02-06T21:30:40.906Z,102396.44
2023-02-06T21:33:43.205Z,102399.13
2023-02-06T21:36:46.034Z,102405.19
2023-02-06T21:39:47.838Z,102404.03
2023-02-06T21:42:49.559Z,102415.53
2023-02-06T21:45:52.954Z,102402.53
2023-02-06T21:48:54.681Z,102412.38
2023-02-06T21:51:59.157Z,102407.78
2023-02-06T21:55:00.941Z,102398.63
2023-02-06T21:58:03.333Z,102401.06
2023-02-06T22:01:08.782Z,102389.06
2023-02-06T22:04:11.855Z,102401.34
2023-02-06T22:07:13.633Z,102399.16
2023-02-06T22:10:15.641Z,102408.41
2023-02-06T22:13:17.501Z,102404.13
2023-02-06T22:16:22.907Z,102390.66
2023-02-06T22:19:24.894Z,102395.22
2023-02-06T22:22:26.550Z,102396.34
2023-02-06T22:25:28.581Z,102401.66
2023-02-06T22:28:31.225Z,102390.81
2023-02-06T22:31:35.318Z,102395.50
2023-02-06T22:34:37.055Z,102386.34
2023-02-06T22:37:38.906Z,102395.59
2023-02-06T22:40:40.661Z,102396.00
2023-02-06T22:43:43.568Z,102390.81
2023-02-06T22:46:48.826Z,102401.78
2023-02-06T22:49:51.737Z,102404.19
2023-02-06T22:53:12.509Z,102400.28
2023-02-06T22:56:36.626Z,102399.25
2023-02-06T22:59:38.512Z,102395.63
2023-02-06T23:02:41.728Z,102391.16
2023-02-06T23:05:43.406Z,102398.56
2023-02-06T23:08:45.114Z,102400.28
2023-02-06T23:11:47.127Z,102396.34
2023-02-06T23:14:48.885Z,102386.28
2023-02-06T23:17:52.835Z,102398.97
2023-02-06T23:20:55.262Z,102404.09
2023-02-06T23:23:58.366Z,102413.19
2023-02-06T23:27:00.234Z,102404.50
2023-02-06T23:30:01.897Z,102417.41
2023-02-06T23:33:06.382Z,102386.09
2023-02-06T23:36:10.914Z,102387.41
2023-02-06T23:39:12.684Z,102393.88
2023-02-06T23:42:14.430Z,102387.69
2023-02-06T23:45:16.440Z,102386.22
2023-02-06T23:48:19.701Z,102398.66
2023-02-06T23:51:22.386Z,102404.88
2023-02-06T23:54:24.108Z,102397.94
2023-02-06T23:57:25.973Z,102405.81
